sensor_id;sensor_type;location;lat;lon;timestamp;pressure;altitude;pressure_sealevel;temperature;humidity
74921;BME280;63483;47.384;8.860;2022-10-04T00:02:22;95186.78;;;8.98;47.61
74921;BME280;63483;47.384;8.860;2022-10-04T00:04:58;95178.28;;;8.96;47.46
74921;BME280;63483;47.384;8.860;2022-10-04T00:07:33;95180.25;;;8.94;47.60
74921;BME280;63483;47.384;8.860;2022-10-04T00:10:12;95179.72;;;8.91;47.78
74921;BME280;63483;47.384;8.860;2022-10-04T00:12:47;95180.84;;;8.88;47.97
74921;BME280;63483;47.384;8.860;2022-10-04T00:15:21;95190.00;;;8.84;47.56
74921;BME280;63483;47.384;8.860;2022-10-04T00:25:54;95189.84;;;8.68;47.44
74921;BME280;63483;47.384;8.860;2022-10-04T00:44:42;95190.47;;;8.61;47.53
74921;BME280;63483;47.384;8.860;2022-10-04T00:49:45;95187.19;;;8.59;47.68
74921;BME280;63483;47.384;8.860;2022-10-04T00:52:22;95182.78;;;8.60;47.21
74921;BME280;63483;47.384;8.860;2022-10-04T00:54:52;95189.00;;;8.59;47.56
74921;BME280;63483;47.384;8.860;2022-10-04T00:57:33;95180.66;;;8.55;47.44
74921;BME280;63483;47.384;8.860;2022-10-04T01:00:10;95182.75;;;8.52;47.56
74921;BME280;63483;47.384;8.860;2022-10-04T01:03:18;95181.75;;;8.53;47.47
74921;BME280;63483;47.384;8.860;2022-10-04T01:05:41;95186.50;;;8.49;47.74
74921;BME280;63483;47.384;8.860;2022-10-04T01:08:09;95181.56;;;8.46;47.83
74921;BME280;63483;47.384;8.860;2022-10-04T01:11:01;95183.50;;;8.44;47.71
74921;BME280;63483;47.384;8.860;2022-10-04T01:13:37;95179.28;;;8.43;47.70
74921;BME280;63483;47.384;8.860;2022-10-04T01:18:36;95170.09;;;8.39;47.69
74921;BME280;63483;47.384;8.860;2022-10-04T01:23:52;95164.81;;;8.31;47.37
74921;BME280;63483;47.384;8.860;2022-10-04T01:29:18;95168.22;;;5.91;43.75
74921;BME280;63483;47.384;8.860;2022-10-04T01:31:53;95163.19;;;5.00;45.36
74921;BME280;63483;47.384;8.860;2022-10-04T01:34:21;95161.66;;;4.35;45.97
74921;BME280;63483;47.384;8.860;2022-10-04T01:36:49;95158.41;;;3.91;47.06
74921;BME280;63483;47.384;8.860;2022-10-04T01:39:17;95156.31;;;3.52;47.42
74921;BME280;63483;47.384;8.860;2022-10-04T01:41:45;95160.16;;;3.26;48.39
74921;BME280;63483;47.384;8.860;2022-10-04T01:47:04;95146.00;;;2.86;48.99
74921;BME280;63483;47.384;8.860;2022-10-04T01:49:33;95135.91;;;2.72;48.49
74921;BME280;63483;47.384;8.860;2022-10-04T01:54:33;95142.38;;;2.55;48.09
74921;BME280;63483;47.384;8.860;2022-10-04T01:59:29;95143.69;;;2.49;47.61
74921;BME280;63483;47.384;8.860;2022-10-04T02:01:58;95144.38;;;2.62;46.05
74921;BME280;63483;47.384;8.860;2022-10-04T02:04:28;95143.19;;;2.78;45.77
74921;BME280;63483;47.384;8.860;2022-10-04T02:06:55;95143.16;;;3.00;44.75
74921;BME280;63483;47.384;8.860;2022-10-04T02:09:28;95142.28;;;3.23;45.08
74921;BME280;63483;47.384;8.860;2022-10-04T02:11:55;95134.97;;;3.28;46.48
74921;BME280;63483;47.384;8.860;2022-10-04T02:14:25;95143.19;;;3.77;50.20
74921;BME280;63483;47.384;8.860;2022-10-04T02:16:52;95141.16;;;4.22;48.98
74921;BME280;63483;47.384;8.860;2022-10-04T02:19:24;95139.97;;;4.67;51.91
74921;BME280;63483;47.384;8.860;2022-10-04T02:21:52;95133.56;;;5.02;51.82
74921;BME280;63483;47.384;8.860;2022-10-04T02:24:18;95130.47;;;5.28;52.05
74921;BME280;63483;47.384;8.860;2022-10-04T02:26:50;95126.50;;;5.53;51.87
74921;BME280;63483;47.384;8.860;2022-10-04T02:29:18;95130.88;;;5.72;50.86
74921;BME280;63483;47.384;8.860;2022-10-04T02:31:44;95131.94;;;5.89;49.85
74921;BME280;63483;47.384;8.860;2022-10-04T02:34:29;95131.19;;;4.58;48.63
74921;BME280;63483;47.384;8.860;2022-10-04T02:36:55;95126.66;;;3.78;48.52
74921;BME280;63483;47.384;8.860;2022-10-04T02:39:25;95123.59;;;3.19;49.06
74921;BME280;63483;47.384;8.860;2022-10-04T02:41:56;95127.34;;;2.71;50.15
74921;BME280;63483;47.384;8.860;2022-10-04T02:44:45;95125.31;;;2.29;49.65
74921;BME280;63483;47.384;8.860;2022-10-04T02:47:21;95127.91;;;2.18;51.43
74921;BME280;63483;47.384;8.860;2022-10-04T02:49:53;95129.28;;;1.88;50.71
74921;BME280;63483;47.384;8.860;2022-10-04T02:52:28;95127.34;;;1.68;50.63
74921;BME280;63483;47.384;8.860;2022-10-04T02:57:42;95122.25;;;1.55;50.79
74921;BME280;63483;47.384;8.860;2022-10-04T03:02:37;95120.50;;;1.55;50.75
74921;BME280;63483;47.384;8.860;2022-10-04T03:05:07;95122.84;;;1.58;49.70
74921;BME280;63483;47.384;8.860;2022-10-04T03:07:34;95122.25;;;1.55;49.41
74921;BME280;63483;47.384;8.860;2022-10-04T03:10:02;95119.69;;;1.55;49.44
74921;BME280;63483;47.384;8.860;2022-10-04T03:12:31;95119.09;;;1.63;49.63
74921;BME280;63483;47.384;8.860;2022-10-04T03:14:57;95120.00;;;1.86;49.64
74921;BME280;63483;47.384;8.860;2022-10-04T03:17:23;95124.84;;;2.02;49.35
74921;BME280;63483;47.384;8.860;2022-10-04T03:19:48;95116.88;;;2.61;49.24
74921;BME280;63483;47.384;8.860;2022-10-04T03:22:15;95120.50;;;3.25;51.88
74921;BME280;63483;47.384;8.860;2022-10-04T03:24:46;95112.09;;;3.77;52.79
74921;BME280;63483;47.384;8.860;2022-10-04T03:27:27;95109.59;;;4.17;53.25
74921;BME280;63483;47.384;8.860;2022-10-04T03:29:55;95110.41;;;3.22;51.93
74921;BME280;63483;47.384;8.860;2022-10-04T03:32:21;95113.47;;;2.49;51.71
74921;BME280;63483;47.384;8.860;2022-10-04T03:35:07;95114.13;;;1.95;52.32
74921;BME280;63483;47.384;8.860;2022-10-04T03:37:42;95114.41;;;1.56;52.24
74921;BME280;63483;47.384;8.860;2022-10-04T03:40:08;95119.69;;;1.31;52.94
74921;BME280;63483;47.384;8.860;2022-10-04T03:42:35;95123.91;;;1.07;52.70
74921;BME280;63483;47.384;8.860;2022-10-04T03:45:06;95120.66;;;0.93;53.67
74921;BME280;63483;47.384;8.860;2022-10-04T03:47:37;95127.50;;;0.81;52.26
74921;BME280;63483;47.384;8.860;2022-10-04T03:50:15;95124.63;;;0.72;52.71
74921;BME280;63483;47.384;8.860;2022-10-04T03:52:48;95124.50;;;0.74;52.43
74921;BME280;63483;47.384;8.860;2022-10-04T03:55:15;95126.38;;;0.85;52.28
74921;BME280;63483;47.384;8.860;2022-10-04T03:57:41;95128.50;;;0.91;52.59
74921;BME280;63483;47.384;8.860;2022-10-04T04:00:07;95124.59;;;0.85;52.24
74921;BME280;63483;47.384;8.860;2022-10-04T04:02:41;95123.69;;;0.86;51.09
74921;BME280;63483;47.384;8.860;2022-10-04T04:05:27;95121.22;;;0.85;49.51
74921;BME280;63483;47.384;8.860;2022-10-04T04:10:42;95125.13;;;1.15;52.98
74921;BME280;63483;47.384;8.860;2022-10-04T04:13:23;95123.44;;;1.98;56.43
74921;BME280;63483;47.384;8.860;2022-10-04T04:15:49;95138.97;;;2.65;55.53
74921;BME280;63483;47.384;8.860;2022-10-04T04:18:21;95122.88;;;3.17;55.86
74921;BME280;63483;47.384;8.860;2022-10-04T04:20:48;95129.38;;;3.55;54.73
74921;BME280;63483;47.384;8.860;2022-10-04T04:23:28;95125.66;;;3.90;55.78
74921;BME280;63483;47.384;8.860;2022-10-04T04:26:00;95121.72;;;4.17;54.98
74921;BME280;63483;47.384;8.860;2022-10-04T04:29:00;95119.69;;;4.41;55.22
74921;BME280;63483;47.384;8.860;2022-10-04T04:31:32;95122.47;;;4.59;54.86
74921;BME280;63483;47.384;8.860;2022-10-04T04:34:00;95129.06;;;4.73;53.47
74921;BME280;63483;47.384;8.860;2022-10-04T04:36:27;95128.72;;;4.88;53.61
74921;BME280;63483;47.384;8.860;2022-10-04T04:39:20;95112.34;;;4.97;53.66
74921;BME280;63483;47.384;8.860;2022-10-04T04:42:04;95119.22;;;5.08;52.95
74921;BME280;63483;47.384;8.860;2022-10-04T04:44:31;95119.50;;;5.15;52.83
74921;BME280;63483;47.384;8.860;2022-10-04T04:46:57;95107.63;;;5.22;52.61
74921;BME280;63483;47.384;8.860;2022-10-04T04:49:26;95106.13;;;5.29;52.60
74921;BME280;63483;47.384;8.860;2022-10-04T04:51:54;95108.19;;;5.35;52.56
74921;BME280;63483;47.384;8.860;2022-10-04T04:54:24;95111.19;;;5.40;51.90
74921;BME280;63483;47.384;8.860;2022-10-04T04:56:52;95117.75;;;5.44;52.02
74921;BME280;63483;47.384;8.860;2022-10-04T04:59:21;95121.59;;;5.50;52.35
74921;BME280;63483;47.384;8.860;2022-10-04T05:01:47;95129.78;;;5.55;52.01
74921;BME280;63483;47.384;8.860;2022-10-04T05:06:41;95121.59;;;5.60;51.84
74921;BME280;63483;47.384;8.860;2022-10-04T05:12:01;95125.53;;;5.64;52.62
74921;BME280;63483;47.384;8.860;2022-10-04T05:14:32;95128.84;;;5.66;51.87
74921;BME280;63483;47.384;8.860;2022-10-04T05:16:57;95116.78;;;5.65;51.69
74921;BME280;63483;47.384;8.860;2022-10-04T05:21:53;95124.19;;;5.70;51.64
74921;BME280;63483;47.384;8.860;2022-10-04T05:24:26;95118.84;;;5.71;51.74
74921;BME280;63483;47.384;8.860;2022-10-04T05:26:56;95124.75;;;5.73;51.75
74921;BME280;63483;47.384;8.860;2022-10-04T05:29:25;95129.78;;;5.75;51.37
74921;BME280;63483;47.384;8.860;2022-10-04T05:34:29;95131.28;;;5.77;51.68
74921;BME280;63483;47.384;8.860;2022-10-04T05:37:20;95131.97;;;5.79;51.47
74921;BME280;63483;47.384;8.860;2022-10-04T05:42:47;95128.16;;;5.83;51.18
74921;BME280;63483;47.384;8.860;2022-10-04T05:45:25;95141.97;;;5.84;51.14
74921;BME280;63483;47.384;8.860;2022-10-04T05:47:56;95139.09;;;5.87;51.15
74921;BME280;63483;47.384;8.860;2022-10-04T05:50:33;95133.06;;;5.87;50.49
74921;BME280;63483;47.384;8.860;2022-10-04T06:07:17;95141.53;;;5.89;50.45
74921;BME280;63483;47.384;8.860;2022-10-04T06:15:30;95135.25;;;5.91;50.57
74921;BME280;63483;47.384;8.860;2022-10-04T06:23:12;95146.47;;;5.92;50.70
74921;BME280;63483;47.384;8.860;2022-10-04T06:26:00;95148.13;;;5.93;50.25
74921;BME280;63483;47.384;8.860;2022-10-04T06:28:33;95155.22;;;5.91;50.61
74921;BME280;63483;47.384;8.860;2022-10-04T06:36:26;95154.41;;;6.00;50.69
74921;BME280;63483;47.384;8.860;2022-10-04T06:52:50;95176.81;;;6.11;52.07
74921;BME280;63483;47.384;8.860;2022-10-04T07:03:56;95199.25;;;6.41;52.46
74921;BME280;63483;47.384;8.860;2022-10-04T07:06:37;95196.78;;;6.49;52.40
74921;BME280;63483;47.384;8.860;2022-10-04T07:09:14;95207.31;;;6.58;52.62
74921;BME280;63483;47.384;8.860;2022-10-04T07:11:52;95196.06;;;6.67;52.80
74921;BME280;63483;47.384;8.860;2022-10-04T07:14:31;95198.06;;;6.73;52.86
74921;BME280;63483;47.384;8.860;2022-10-04T07:17:09;95196.69;;;6.79;53.39
74921;BME280;63483;47.384;8.860;2022-10-04T07:19:47;95201.19;;;6.86;53.25
74921;BME280;63483;47.384;8.860;2022-10-04T07:22:39;95192.78;;;6.93;53.28
74921;BME280;63483;47.384;8.860;2022-10-04T07:26:04;95190.59;;;6.98;53.42
74921;BME280;63483;47.384;8.860;2022-10-04T07:28:13;95196.47;;;7.00;52.98
74921;BME280;63483;47.384;8.860;2022-10-04T07:31:04;95184.00;;;7.03;53.58
74921;BME280;63483;47.384;8.860;2022-10-04T07:33:42;95179.31;;;7.07;53.87
74921;BME280;63483;47.384;8.860;2022-10-04T07:36:12;95175.16;;;7.14;53.50
74921;BME280;63483;47.384;8.860;2022-10-04T07:38:58;95170.03;;;7.22;54.11
74921;BME280;63483;47.384;8.860;2022-10-04T07:41:33;95172.06;;;7.29;53.75
74921;BME280;63483;47.384;8.860;2022-10-04T07:44:13;95177.94;;;7.31;54.09
74921;BME280;63483;47.384;8.860;2022-10-04T07:49:43;95186.34;;;7.25;55.08
74921;BME280;63483;47.384;8.860;2022-10-04T08:00:38;95208.47;;;7.11;56.13
74921;BME280;63483;47.384;8.860;2022-10-04T08:06:27;95210.19;;;5.47;51.91
74921;BME280;63483;47.384;8.860;2022-10-04T08:42:49;95218.25;;;4.41;55.93
74921;BME280;63483;47.384;8.860;2022-10-04T09:21:58;95205.13;;;9.07;57.13
74921;BME280;63483;47.384;8.860;2022-10-04T09:27:37;95206.19;;;9.30;56.08
74921;BME280;63483;47.384;8.860;2022-10-04T09:30:16;95198.03;;;9.33;56.71
74921;BME280;63483;47.384;8.860;2022-10-04T09:54:52;95191.66;;;10.03;54.21
74921;BME280;63483;47.384;8.860;2022-10-04T10:03:01;95188.69;;;10.23;53.52
74921;BME280;63483;47.384;8.860;2022-10-04T10:05:48;95187.06;;;10.30;53.19
74921;BME280;63483;47.384;8.860;2022-10-04T10:11:09;95188.19;;;10.36;53.31
74921;BME280;63483;47.384;8.860;2022-10-04T10:14:20;95192.97;;;10.32;53.04
74921;BME280;63483;47.384;8.860;2022-10-04T10:27:44;95198.63;;;10.77;53.11
74921;BME280;63483;47.384;8.860;2022-10-04T10:32:54;95194.00;;;10.96;52.66
74921;BME280;63483;47.384;8.860;2022-10-04T10:35:28;95209.38;;;11.07;53.10
74921;BME280;63483;47.384;8.860;2022-10-04T10:41:13;95191.66;;;11.17;53.51
74921;BME280;63483;47.384;8.860;2022-10-04T11:06:56;95188.22;;;11.48;52.15
74921;BME280;63483;47.384;8.860;2022-10-04T11:10:03;95188.66;;;11.60;52.04
74921;BME280;63483;47.384;8.860;2022-10-04T11:15:49;95188.56;;;11.76;51.68
74921;BME280;63483;47.384;8.860;2022-10-04T11:22:11;95177.16;;;11.92;51.28
74921;BME280;63483;47.384;8.860;2022-10-04T11:24:51;95175.94;;;12.03;50.67
74921;BME280;63483;47.384;8.860;2022-10-04T11:27:47;95177.84;;;12.09;50.38
74921;BME280;63483;47.384;8.860;2022-10-04T11:30:26;95176.25;;;12.08;50.07
74921;BME280;63483;47.384;8.860;2022-10-04T11:57:55;95157.22;;;12.44;51.28
74921;BME280;63483;47.384;8.860;2022-10-04T12:00:25;95163.03;;;12.55;51.05
74921;BME280;63483;47.384;8.860;2022-10-04T12:11:33;95158.50;;;12.63;50.29
74921;BME280;63483;47.384;8.860;2022-10-04T12:23:04;95138.59;;;12.84;50.25
74921;BME280;63483;47.384;8.860;2022-10-04T12:39:23;95120.19;;;12.99;50.28
74921;BME280;63483;47.384;8.860;2022-10-04T12:47:56;95129.13;;;13.20;48.97
74921;BME280;63483;47.384;8.860;2022-10-04T12:50:44;95136.91;;;13.28;49.77
74921;BME280;63483;47.384;8.860;2022-10-04T12:55:56;95132.81;;;13.40;49.83
74921;BME280;63483;47.384;8.860;2022-10-04T12:58:49;95130.81;;;13.42;49.81
74921;BME280;63483;47.384;8.860;2022-10-04T13:04:44;95115.97;;;13.56;49.63
74921;BME280;63483;47.384;8.860;2022-10-04T13:13:17;95124.28;;;13.75;48.51
74921;BME280;63483;47.384;8.860;2022-10-04T13:16:14;95115.81;;;13.79;49.02
74921;BME280;63483;47.384;8.860;2022-10-04T13:24:32;95124.28;;;13.96;48.07
74921;BME280;63483;47.384;8.860;2022-10-04T13:27:24;95129.78;;;14.01;48.67
74921;BME280;63483;47.384;8.860;2022-10-04T13:30:03;95124.94;;;14.05;48.62
74921;BME280;63483;47.384;8.860;2022-10-04T13:35:48;95126.66;;;14.13;48.85
74921;BME280;63483;47.384;8.860;2022-10-04T14:26:54;95132.53;;;14.15;47.56
74921;BME280;63483;47.384;8.860;2022-10-04T14:29:50;95136.34;;;14.12;47.06
74921;BME280;63483;47.384;8.860;2022-10-04T14:35:33;95137.00;;;14.14;48.16
74921;BME280;63483;47.384;8.860;2022-10-04T14:41:09;95142.66;;;14.11;47.50
74921;BME280;63483;47.384;8.860;2022-10-04T14:44:22;95138.75;;;14.07;47.16
74921;BME280;63483;47.384;8.860;2022-10-04T14:46:58;95139.38;;;14.09;47.21
74921;BME280;63483;47.384;8.860;2022-10-04T14:55:43;95136.47;;;14.26;46.80
74921;BME280;63483;47.384;8.860;2022-10-04T15:03:31;95149.88;;;14.31;48.32
74921;BME280;63483;47.384;8.860;2022-10-04T15:06:10;95140.97;;;14.32;48.31
74921;BME280;63483;47.384;8.860;2022-10-04T15:11:16;95136.72;;;14.31;48.31
74921;BME280;63483;47.384;8.860;2022-10-04T15:13:52;95140.59;;;14.35;48.46
74921;BME280;63483;47.384;8.860;2022-10-04T15:16:43;95132.06;;;14.33;48.72
74921;BME280;63483;47.384;8.860;2022-10-04T15:19:25;95134.88;;;14.31;48.73
74921;BME280;63483;47.384;8.860;2022-10-04T15:24:24;95127.38;;;14.28;48.79
74921;BME280;63483;47.384;8.860;2022-10-04T15:27:22;95133.63;;;14.27;48.97
74921;BME280;63483;47.384;8.860;2022-10-04T15:36:21;95131.53;;;14.16;48.65
74921;BME280;63483;47.384;8.860;2022-10-04T15:38:52;95133.53;;;14.14;49.00
74921;BME280;63483;47.384;8.860;2022-10-04T15:44:26;95124.41;;;14.10;49.24
74921;BME280;63483;47.384;8.860;2022-10-04T15:47:32;95124.59;;;14.08;49.33
74921;BME280;63483;47.384;8.860;2022-10-04T15:52:52;95129.38;;;13.98;49.23
74921;BME280;63483;47.384;8.860;2022-10-04T15:58:17;95122.34;;;13.83;49.09
74921;BME280;63483;47.384;8.860;2022-10-04T16:01:45;95133.16;;;13.74;49.34
74921;BME280;63483;47.384;8.860;2022-10-04T16:12:27;95115.75;;;13.36;49.71
74921;BME280;63483;47.384;8.860;2022-10-04T16:15:15;95115.69;;;13.29;49.96
74921;BME280;63483;47.384;8.860;2022-10-04T16:20:53;95116.34;;;13.16;50.11
74921;BME280;63483;47.384;8.860;2022-10-04T16:23:28;95108.19;;;13.11;50.02
74921;BME280;63483;47.384;8.860;2022-10-04T16:25:57;95110.56;;;13.06;49.76
74921;BME280;63483;47.384;8.860;2022-10-04T16:28:29;95104.41;;;12.99;50.11
74921;BME280;63483;47.384;8.860;2022-10-04T16:31:41;95106.75;;;12.94;50.44
74921;BME280;63483;47.384;8.860;2022-10-04T16:34:23;95104.88;;;12.88;50.43
74921;BME280;63483;47.384;8.860;2022-10-04T16:36:57;95115.13;;;12.82;50.54
74921;BME280;63483;47.384;8.860;2022-10-04T16:42:17;95115.53;;;12.71;50.44
74921;BME280;63483;47.384;8.860;2022-10-04T16:44:54;95116.91;;;12.67;50.45
74921;BME280;63483;47.384;8.860;2022-10-04T16:47:30;95117.63;;;12.61;50.89
74921;BME280;63483;47.384;8.860;2022-10-04T16:50:00;95120.00;;;12.56;50.69
74921;BME280;63483;47.384;8.860;2022-10-04T16:55:42;95118.97;;;12.42;50.55
74921;BME280;63483;47.384;8.860;2022-10-04T17:04:09;95124.38;;;12.25;50.92
74921;BME280;63483;47.384;8.860;2022-10-04T17:09:23;95129.88;;;12.16;51.08
74921;BME280;63483;47.384;8.860;2022-10-04T17:17:08;95129.66;;;12.02;50.48
74921;BME280;63483;47.384;8.860;2022-10-04T17:19:54;95133.00;;;11.96;49.70
74921;BME280;63483;47.384;8.860;2022-10-04T17:25:46;95140.97;;;11.79;50.63
74921;BME280;63483;47.384;8.860;2022-10-04T17:28:21;95137.72;;;11.77;51.09
74921;BME280;63483;47.384;8.860;2022-10-04T17:31:10;95147.56;;;11.75;50.83
74921;BME280;63483;47.384;8.860;2022-10-04T17:36:33;95153.50;;;11.69;50.71
74921;BME280;63483;47.384;8.860;2022-10-04T17:39:13;95147.97;;;11.64;50.88
74921;BME280;63483;47.384;8.860;2022-10-04T17:41:50;95146.34;;;11.63;51.02
74921;BME280;63483;47.384;8.860;2022-10-04T17:44:52;95147.50;;;11.60;51.03
74921;BME280;63483;47.384;8.860;2022-10-04T17:47:25;95157.88;;;11.54;50.42
74921;BME280;63483;47.384;8.860;2022-10-04T17:50:18;95165.78;;;11.46;51.34
74921;BME280;63483;47.384;8.860;2022-10-04T17:53:13;95163.50;;;11.42;51.47
74921;BME280;63483;47.384;8.860;2022-10-04T17:55:59;95169.91;;;11.40;51.28
74921;BME280;63483;47.384;8.860;2022-10-04T17:58:49;95174.16;;;11.41;51.71
74921;BME280;63483;47.384;8.860;2022-10-04T18:06:56;95178.34;;;11.27;50.77
74921;BME280;63483;47.384;8.860;2022-10-04T18:12:33;95189.19;;;11.16;50.90
74921;BME280;63483;47.384;8.860;2022-10-04T18:17:50;95200.03;;;11.04;50.69
74921;BME280;63483;47.384;8.860;2022-10-04T18:23:26;95194.34;;;11.01;50.99
74921;BME280;63483;47.384;8.860;2022-10-04T18:26:02;95195.47;;;10.98;50.97
74921;BME280;63483;47.384;8.860;2022-10-04T18:28:29;95193.19;;;10.95;50.49
74921;BME280;63483;47.384;8.860;2022-10-04T18:31:00;95184.03;;;10.91;50.52
74921;BME280;63483;47.384;8.860;2022-10-04T18:36:13;95180.28;;;10.85;50.42
74921;BME280;63483;47.384;8.860;2022-10-04T18:38:44;95178.81;;;10.83;50.25
74921;BME280;63483;47.384;8.860;2022-10-04T18:41:16;95174.88;;;10.79;50.46
74921;BME280;63483;47.384;8.860;2022-10-04T18:44:13;95171.94;;;10.73;50.45
74921;BME280;63483;47.384;8.860;2022-10-04T18:46:40;95167.34;;;10.67;50.53
74921;BME280;63483;47.384;8.860;2022-10-04T18:49:19;95170.47;;;10.63;51.08
74921;BME280;63483;47.384;8.860;2022-10-04T18:51:59;95171.63;;;10.60;50.83
74921;BME280;63483;47.384;8.860;2022-10-04T18:57:20;95167.72;;;10.56;51.04
74921;BME280;63483;47.384;8.860;2022-10-04T19:05:40;95169.72;;;10.46;51.01
74921;BME280;63483;47.384;8.860;2022-10-04T19:11:41;95168.06;;;10.45;50.98
74921;BME280;63483;47.384;8.860;2022-10-04T19:14:46;95179.50;;;10.44;51.14
74921;BME280;63483;47.384;8.860;2022-10-04T19:17:34;95187.69;;;10.41;50.83
74921;BME280;63483;47.384;8.860;2022-10-04T19:20:04;95186.41;;;10.36;50.88
74921;BME280;63483;47.384;8.860;2022-10-04T19:22:54;95188.38;;;10.34;51.07
74921;BME280;63483;47.384;8.860;2022-10-04T19:28:17;95195.59;;;10.32;51.24
74921;BME280;63483;47.384;8.860;2022-10-04T19:33:18;95208.00;;;10.30;51.14
74921;BME280;63483;47.384;8.860;2022-10-04T19:36:12;95202.28;;;10.27;50.93
74921;BME280;63483;47.384;8.860;2022-10-04T19:39:13;95203.44;;;10.24;51.11
74921;BME280;63483;47.384;8.860;2022-10-04T19:41:56;95207.34;;;10.20;50.85
74921;BME280;63483;47.384;8.860;2022-10-04T19:44:57;95207.69;;;10.17;50.67
74921;BME280;63483;47.384;8.860;2022-10-04T19:50:31;95208.03;;;10.06;50.77
74921;BME280;63483;47.384;8.860;2022-10-04T19:53:05;95216.19;;;10.02;50.46
74921;BME280;63483;47.384;8.860;2022-10-04T20:00:38;95221.72;;;9.99;50.68
74921;BME280;63483;47.384;8.860;2022-10-04T20:03:09;95226.31;;;9.97;50.71
74921;BME280;63483;47.384;8.860;2022-10-04T20:05:42;95224.50;;;9.98;50.87
74921;BME280;63483;47.384;8.860;2022-10-04T20:08:10;95218.78;;;9.94;50.62
74921;BME280;63483;47.384;8.860;2022-10-04T20:10:37;95229.06;;;9.88;50.45
74921;BME280;63483;47.384;8.860;2022-10-04T20:18:01;95231.75;;;7.96;45.80
74921;BME280;63483;47.384;8.860;2022-10-04T20:23:08;95233.22;;;6.30;48.58
74921;BME280;63483;47.384;8.860;2022-10-04T20:30:58;95236.63;;;5.11;51.10
74921;BME280;63483;47.384;8.860;2022-10-04T20:36:03;95238.84;;;4.64;52.35
74921;BME280;63483;47.384;8.860;2022-10-04T20:38:52;95233.28;;;4.48;52.20
74921;BME280;63483;47.384;8.860;2022-10-04T20:43:53;95236.13;;;4.23;52.02
74921;BME280;63483;47.384;8.860;2022-10-04T20:46:24;95240.06;;;4.18;52.32
74921;BME280;63483;47.384;8.860;2022-10-04T20:48:51;95243.28;;;4.31;51.76
74921;BME280;63483;47.384;8.860;2022-10-04T20:51:19;95240.50;;;4.23;51.75
74921;BME280;63483;47.384;8.860;2022-10-04T20:53:46;95238.28;;;4.18;51.47
74921;BME280;63483;47.384;8.860;2022-10-04T20:56:22;95240.19;;;4.16;50.86
74921;BME280;63483;47.384;8.860;2022-10-04T20:58:50;95236.53;;;4.40;51.87
74921;BME280;63483;47.384;8.860;2022-10-04T21:01:33;95240.50;;;4.23;51.53
74921;BME280;63483;47.384;8.860;2022-10-04T21:04:13;95244.34;;;4.29;51.92
74921;BME280;63483;47.384;8.860;2022-10-04T21:06:55;95243.25;;;4.73;55.10
74921;BME280;63483;47.384;8.860;2022-10-04T21:09:21;95254.63;;;5.03;63.67
74921;BME280;63483;47.384;8.860;2022-10-04T21:11:50;95254.81;;;4.38;56.03
74921;BME280;63483;47.384;8.860;2022-10-04T21:16:50;95257.69;;;3.70;55.18
74921;BME280;63483;47.384;8.860;2022-10-04T21:27:36;95251.41;;;3.07;55.62
74921;BME280;63483;47.384;8.860;2022-10-04T21:30:12;95255.63;;;2.96;54.88
74921;BME280;63483;47.384;8.860;2022-10-04T21:32:38;95256.06;;;2.90;54.71
74921;BME280;63483;47.384;8.860;2022-10-04T21:35:06;95255.25;;;2.90;55.25
74921;BME280;63483;47.384;8.860;2022-10-04T21:37:32;95255.41;;;3.77;57.95
74921;BME280;63483;47.384;8.860;2022-10-04T21:39:58;95256.31;;;4.62;58.24
74921;BME280;63483;47.384;8.860;2022-10-04T21:42:23;95256.59;;;5.21;57.76
74921;BME280;63483;47.384;8.860;2022-10-04T21:44:49;95259.59;;;5.67;56.90
74921;BME280;63483;47.384;8.860;2022-10-04T21:47:14;95263.34;;;6.03;56.83
74921;BME280;63483;47.384;8.860;2022-10-04T21:49:40;95258.94;;;6.33;56.57
74921;BME280;63483;47.384;8.860;2022-10-04T21:52:06;95264.56;;;6.58;56.83
74921;BME280;63483;47.384;8.860;2022-10-04T21:54:32;95272.34;;;6.77;55.77
74921;BME280;63483;47.384;8.860;2022-10-04T21:56:57;95265.28;;;6.97;55.31
74921;BME280;63483;47.384;8.860;2022-10-04T21:59:23;95270.84;;;7.12;55.43
74921;BME280;63483;47.384;8.860;2022-10-04T22:01:48;95270.69;;;7.23;55.20
74921;BME280;63483;47.384;8.860;2022-10-04T22:04:14;95275.00;;;7.33;55.29
74921;BME280;63483;47.384;8.860;2022-10-04T22:06:40;95280.88;;;7.45;54.95
74921;BME280;63483;47.384;8.860;2022-10-04T22:09:05;95274.94;;;7.52;54.92
74921;BME280;63483;47.384;8.860;2022-10-04T22:11:31;95283.81;;;7.59;53.92
74921;BME280;63483;47.384;8.860;2022-10-04T22:13:56;95271.19;;;7.65;53.92
74921;BME280;63483;47.384;8.860;2022-10-04T22:16:21;95270.91;;;7.68;54.06
74921;BME280;63483;47.384;8.860;2022-10-04T22:18:47;95271.28;;;7.73;53.83
74921;BME280;63483;47.384;8.860;2022-10-04T22:21:12;95270.00;;;7.77;53.19
74921;BME280;63483;47.384;8.860;2022-10-04T22:23:40;95276.72;;;7.80;53.39
74921;BME280;63483;47.384;8.860;2022-10-04T22:26:17;95273.03;;;7.82;53.20
74921;BME280;63483;47.384;8.860;2022-10-04T22:28:45;95271.88;;;7.85;53.15
74921;BME280;63483;47.384;8.860;2022-10-04T22:31:12;95274.38;;;7.86;52.92
74921;BME280;63483;47.384;8.860;2022-10-04T22:33:40;95274.72;;;7.91;53.23
74921;BME280;63483;47.384;8.860;2022-10-04T22:36:21;95264.97;;;7.93;53.08
74921;BME280;63483;47.384;8.860;2022-10-04T22:41:16;95269.22;;;7.95;52.46
74921;BME280;63483;47.384;8.860;2022-10-04T22:43:44;95268.25;;;7.96;52.36
74921;BME280;63483;47.384;8.860;2022-10-04T22:46:13;95272.38;;;7.98;52.35
74921;BME280;63483;47.384;8.860;2022-10-04T22:48:40;95272.88;;;8.02;52.37
74921;BME280;63483;47.384;8.860;2022-10-04T22:51:09;95268.78;;;7.99;52.31
74921;BME280;63483;47.384;8.860;2022-10-04T22:53:34;95270.56;;;7.99;52.65
74921;BME280;63483;47.384;8.860;2022-10-04T22:56:00;95274.84;;;8.00;52.85
74921;BME280;63483;47.384;8.860;2022-10-04T22:58:25;95276.44;;;8.01;52.85
74921;BME280;63483;47.384;8.860;2022-10-04T23:00:51;95277.13;;;8.03;52.49
74921;BME280;63483;47.384;8.860;2022-10-04T23:03:31;95277.00;;;8.04;52.35
74921;BME280;63483;47.384;8.860;2022-10-04T23:05:58;95270.13;;;8.03;52.48
74921;BME280;63483;47.384;8.860;2022-10-04T23:08:24;95260.50;;;8.04;52.34
74921;BME280;63483;47.384;8.860;2022-10-04T23:10:57;95265.41;;;8.07;52.68